Audacious — NA1 — position and weather

sailwx.info

Track history (hours):
 
Tides and Currents Weather Stations Pressure Air Temp Water Temp Dewpoint Dewpoint Depression Visibility Wind Speed Wind Dir Waves Ship Positions

Audacious

Last reported at 2018-May-23 21:14 UTC. Time now 2018-Jun-25 12:02 UTC.
Position N 47°40' W 122°24'.
Warning: this ship's position is 32 days out of date.

Length 14 m.

Type: Sailing vessel. MMSI: 338161198.

Date/timePositionNaut miles runAvg speedWind from/ knotsBaromVisibWave heightAir tempDewpointWater temp
2018-May-23 21:14N 47°40' W 122°24'1 3.9
2018-May-23 21:00N 47°40' W 122°26'2 4.4
2018-May-23 20:30N 47°38' W 122°25'3 5.0
2018-May-23 19:59N 47°36' W 122°28'2 4.8
2018-May-23 19:30N 47°34' W 122°28'3 5.1
2018-May-23 19:00N 47°32' W 122°28'1 2.4
2018-May-23 18:30N 47°31' W 122°29'2 4.1
2018-May-23 18:00N 47°29' W 122°30'9 0.4
2018-May-22 19:59N 47°20' W 122°28'3 6.2
2018-May-22 19:29N 47°22' W 122°24'2 4.6
2018-May-22 19:00N 47°24' W 122°23'3 6.8
2018-May-22 18:29N 47°27' W 122°25'3 5.9
2018-May-22 18:00N 47°30' W 122°27'2 3.8
2018-May-22 17:30N 47°31' W 122°29'1 0.1
2018-May-21 21:04N 47°32' W 122°30'0 2.6
2018-May-21 20:59N 47°33' W 122°30'2 4.5
2018-May-21 20:28N 47°35' W 122°29'4 7.6
2018-May-21 19:56N 47°39' W 122°27'  
Track history (hours):
 
Tides and Currents Weather Stations Pressure Air Temp Water Temp Dewpoint Dewpoint Depression Visibility Wind Speed Wind Dir Waves Ship Positions

Audacious

Last reported at 2018-May-23 21:14 UTC. Time now 2018-Jun-25 12:02 UTC.
Position N 47°40' W 122°24'.
Warning: this ship's position is 32 days out of date.

Length 14 m.

Type: Sailing vessel. MMSI: 338161198.

Date/timePositionNaut miles runAvg speedWind from/ knotsBaromVisibWave heightAir tempDewpointWater temp
2018-May-23 21:14N 47°40' W 122°24'1 3.9
2018-May-23 21:00N 47°40' W 122°26'2 4.4
2018-May-23 20:30N 47°38' W 122°25'3 5.0
2018-May-23 19:59N 47°36' W 122°28'2 4.8
2018-May-23 19:30N 47°34' W 122°28'3 5.1
2018-May-23 19:00N 47°32' W 122°28'1 2.4
2018-May-23 18:30N 47°31' W 122°29'2 4.1
2018-May-23 18:00N 47°29' W 122°30'9 0.4
2018-May-22 19:59N 47°20' W 122°28'3 6.2
2018-May-22 19:29N 47°22' W 122°24'2 4.6
2018-May-22 19:00N 47°24' W 122°23'3 6.8
2018-May-22 18:29N 47°27' W 122°25'3 5.9
2018-May-22 18:00N 47°30' W 122°27'2 3.8
2018-May-22 17:30N 47°31' W 122°29'1 0.1
2018-May-21 21:04N 47°32' W 122°30'0 2.6
2018-May-21 20:59N 47°33' W 122°30'2 4.5
2018-May-21 20:28N 47°35' W 122°29'4 7.6
2018-May-21 19:56N 47°39' W 122°27'  

Dump ship's entire track history